createdAt,value
2022-10-09T00:02:41.279Z,9.60
2022-10-09T00:07:45.828Z,10.50
2022-10-09T00:12:50.821Z,11.40
2022-10-09T00:17:55.410Z,15.10
2022-10-09T00:23:02.446Z,10.60
2022-10-09T00:28:06.814Z,7.20
2022-10-09T00:33:10.997Z,5.60
2022-10-09T00:38:15.505Z,15.40
2022-10-09T00:43:38.316Z,12.50
2022-10-09T00:48:41.763Z,9.30
2022-10-09T00:53:44.951Z,14.90
2022-10-09T00:58:53.829Z,11.40
2022-10-09T01:03:58.098Z,9.70
2022-10-09T01:09:15.788Z,8.90
2022-10-09T01:14:48.796Z,7.30
2022-10-09T01:20:01.565Z,10.60
2022-10-09T01:25:15.941Z,11.50
2022-10-09T01:30:19.231Z,9.20
2022-10-09T01:35:23.785Z,17.70
2022-10-09T01:40:29.323Z,34.40
2022-10-09T01:45:43.306Z,8.10
2022-10-09T01:50:53.419Z,5.60
2022-10-09T01:56:09.851Z,9.20
2022-10-09T02:01:39.220Z,8.70
2022-10-09T02:06:45.392Z,6.90
2022-10-09T02:11:55.344Z,9.40
2022-10-09T02:17:24.365Z,6.70
2022-10-09T02:22:34.035Z,6.70
2022-10-09T02:27:38.246Z,4.70
2022-10-09T02:37:50.353Z,8.10
2022-10-09T02:42:54.912Z,8.60
2022-10-09T02:47:58.193Z,10.60
2022-10-09T02:53:02.718Z,6.90
2022-10-09T02:58:07.605Z,6.30
2022-10-09T03:03:11.541Z,7.50
2022-10-09T03:08:15.533Z,13.10
2022-10-09T03:13:19.993Z,9.10
2022-10-09T03:18:24.819Z,6.40
2022-10-09T03:23:29.044Z,6.50
2022-10-09T03:28:36.230Z,12.40
2022-10-09T03:38:44.369Z,6.40
2022-10-09T03:43:48.696Z,6.80
2022-10-09T03:48:52.933Z,10.00
2022-10-09T03:53:57.347Z,5.30
2022-10-09T03:59:00.886Z,9.00
2022-10-09T04:04:04.665Z,5.40
2022-10-09T04:09:09.268Z,12.90
2022-10-09T04:14:13.513Z,7.40
2022-10-09T04:19:20.731Z,7.50
2022-10-09T04:24:25.143Z,8.10
2022-10-09T04:29:29.221Z,7.40
2022-10-09T04:34:33.845Z,6.70
2022-10-09T04:39:38.042Z,13.70
2022-10-09T04:44:42.634Z,5.80
2022-10-09T04:49:46.563Z,7.90
2022-10-09T04:54:50.325Z,6.10
2022-10-09T04:59:54.300Z,7.20
2022-10-09T05:05:00.591Z,7.40
2022-10-09T05:10:06.372Z,8.20
2022-10-09T05:15:11.508Z,4.70
2022-10-09T05:20:16.774Z,13.40
2022-10-09T05:25:22.154Z,5.90
2022-10-09T05:30:26.894Z,7.40
2022-10-09T05:35:31.571Z,4.20
2022-10-09T05:40:37.198Z,5.30
2022-10-09T05:45:41.582Z,11.90
2022-10-09T05:50:46.381Z,9.40
2022-10-09T05:55:50.466Z,8.90
2022-10-09T06:01:00.263Z,4.40
2022-10-09T06:06:06.011Z,5.90
2022-10-09T06:11:15.224Z,8.00
2022-10-09T06:16:19.235Z,9.20
2022-10-09T06:21:26.643Z,18.50
2022-10-09T06:26:30.606Z,7.00
2022-10-09T06:31:34.137Z,5.80
2022-10-09T06:36:37.402Z,8.10
2022-10-09T06:41:41.129Z,21.50
2022-10-09T06:46:46.170Z,14.20
2022-10-09T06:51:50.654Z,16.10
2022-10-09T06:56:55.718Z,6.00
2022-10-09T07:02:00.273Z,11.10
2022-10-09T07:07:04.141Z,13.50
2022-10-09T07:12:08.620Z,15.20
2022-10-09T07:17:12.732Z,20.10
2022-10-09T07:22:16.780Z,26.80
2022-10-09T07:27:21.136Z,22.40
2022-10-09T07:32:24.733Z,12.50
2022-10-09T07:37:28.315Z,10.80
2022-10-09T07:42:32.268Z,16.00
2022-10-09T07:47:36.964Z,7.40
2022-10-09T07:52:41.051Z,10.40
2022-10-09T07:57:46.127Z,8.40
2022-10-09T08:02:50.896Z,18.10
2022-10-09T08:07:55.554Z,11.90
2022-10-09T08:13:00.582Z,18.40
2022-10-09T08:18:04.984Z,19.40
2022-10-09T08:23:09.421Z,22.30
2022-10-09T08:28:13.936Z,20.60
2022-10-09T08:33:22.398Z,6.30
2022-10-09T08:38:46.230Z,7.60
2022-10-09T08:43:56.838Z,12.40
2022-10-09T08:49:03.841Z,5.70
2022-10-09T08:54:31.056Z,7.80
2022-10-09T08:59:35.251Z,19.80
2022-10-09T09:05:11.106Z,19.20
2022-10-09T09:10:21.277Z,22.80
2022-10-09T09:15:51.472Z,11.80
2022-10-09T09:21:20.708Z,8.50
2022-10-09T09:26:25.322Z,13.20
2022-10-09T09:31:36.369Z,15.20
2022-10-09T09:36:47.212Z,4.00
2022-10-09T09:41:51.492Z,10.90
2022-10-09T09:46:56.005Z,11.70
2022-10-09T09:52:02.026Z,6.70
2022-10-09T09:57:17.145Z,8.40
2022-10-09T10:02:28.724Z,8.90
2022-10-09T10:07:38.248Z,4.60
2022-10-09T10:12:54.127Z,21.70
2022-10-09T10:18:14.313Z,13.60
2022-10-09T10:23:24.277Z,5.60
2022-10-09T10:28:37.182Z,5.40
2022-10-09T10:33:43.492Z,10.50
2022-10-09T10:39:14.097Z,9.70
2022-10-09T10:44:36.595Z,4.60
2022-10-09T10:49:41.614Z,5.60
2022-10-09T10:55:28.984Z,7.50
2022-10-09T11:00:42.266Z,5.70
2022-10-09T11:06:19.859Z,6.40
2022-10-09T11:17:20.658Z,15.10
2022-10-09T11:22:47.020Z,5.60
2022-10-09T11:28:16.384Z,3.00
2022-10-09T11:33:36.664Z,6.30
2022-10-09T11:38:53.980Z,6.80
2022-10-09T11:44:24.693Z,8.40
2022-10-09T11:49:40.837Z,3.50
2022-10-09T11:54:45.863Z,6.70
2022-10-09T11:59:50.906Z,3.20
2022-10-09T12:04:56.263Z,4.60
2022-10-09T12:10:27.072Z,5.30
2022-10-09T12:15:48.690Z,4.30
2022-10-09T12:20:55.612Z,2.40
2022-10-09T12:26:00.852Z,5.00
2022-10-09T12:31:16.613Z,3.60
2022-10-09T12:36:27.793Z,3.90
2022-10-09T12:41:35.044Z,4.30
2022-10-09T12:46:40.077Z,2.30
2022-10-09T12:51:55.332Z,9.90
2022-10-09T12:57:02.225Z,10.90
2022-10-09T13:02:12.534Z,8.20
2022-10-09T13:07:25.092Z,4.00
2022-10-09T13:12:31.000Z,4.30
2022-10-09T13:17:41.009Z,4.10
2022-10-09T13:23:06.978Z,4.40
2022-10-09T13:28:21.180Z,3.30
2022-10-09T13:33:24.809Z,6.90
2022-10-09T13:38:31.391Z,5.00
2022-10-09T13:43:37.327Z,6.70
2022-10-09T13:48:44.985Z,3.80
2022-10-09T13:53:50.957Z,4.30
2022-10-09T13:58:55.520Z,3.70
2022-10-09T14:03:59.575Z,8.10
2022-10-09T14:09:09.751Z,4.60
2022-10-09T14:14:13.312Z,3.70
2022-10-09T14:19:16.602Z,10.40
2022-10-09T14:24:20.998Z,2.50
2022-10-09T14:29:25.844Z,3.10
2022-10-09T14:34:29.561Z,8.20
2022-10-09T14:39:33.109Z,8.10
2022-10-09T14:44:36.730Z,9.40
2022-10-09T14:49:40.265Z,10.00
2022-10-09T14:54:44.482Z,5.50
2022-10-09T14:59:48.012Z,3.40
2022-10-09T15:04:52.317Z,8.80
2022-10-09T15:09:57.662Z,4.60
2022-10-09T15:15:02.696Z,17.80
2022-10-09T15:20:07.601Z,6.60
2022-10-09T15:25:14.154Z,4.40
2022-10-09T15:30:18.474Z,9.00
2022-10-09T15:35:31.867Z,5.50
2022-10-09T15:40:55.392Z,3.90
2022-10-09T15:46:12.296Z,4.60
2022-10-09T15:51:27.811Z,13.30
2022-10-09T15:56:40.406Z,8.40
2022-10-09T16:01:54.979Z,26.30
2022-10-09T16:07:10.491Z,7.50
2022-10-09T16:12:29.359Z,8.10
2022-10-09T16:17:43.089Z,8.10
2022-10-09T16:22:55.790Z,6.90
2022-10-09T16:28:13.806Z,9.40
2022-10-09T16:33:22.764Z,16.10
2022-10-09T16:38:32.759Z,17.00
2022-10-09T16:43:40.949Z,7.50
2022-10-09T16:48:45.467Z,10.00
2022-10-09T16:53:54.742Z,14.30
2022-10-09T16:59:00.728Z,16.40
2022-10-09T17:04:05.263Z,21.30
2022-10-09T17:09:14.034Z,35.70
2022-10-09T17:14:18.707Z,38.50
2022-10-09T17:19:23.508Z,37.80
2022-10-09T17:24:28.651Z,41.70
2022-10-09T17:29:32.963Z,45.10
2022-10-09T17:34:37.209Z,42.50
2022-10-09T17:39:43.686Z,45.80
2022-10-09T17:44:49.425Z,20.50
2022-10-09T17:49:52.972Z,29.90
2022-10-09T17:54:56.750Z,33.20
2022-10-09T18:00:02.322Z,39.10
2022-10-09T18:05:06.520Z,37.50
2022-10-09T18:10:10.043Z,40.70
2022-10-09T18:15:14.132Z,67.00
2022-10-09T18:20:18.440Z,39.60
2022-10-09T18:25:23.261Z,45.20
2022-10-09T18:30:28.392Z,50.80
2022-10-09T18:35:36.151Z,53.40
2022-10-09T18:40:45.579Z,30.60
2022-10-09T18:45:50.473Z,32.10
2022-10-09T18:50:54.998Z,33.00
2022-10-09T18:55:59.490Z,27.90
2022-10-09T19:01:07.208Z,34.70
2022-10-09T19:06:11.575Z,31.20
2022-10-09T19:11:15.996Z,30.10
2022-10-09T19:16:23.421Z,19.10
2022-10-09T19:21:28.143Z,24.30
2022-10-09T19:26:33.913Z,26.30
2022-10-09T19:31:39.057Z,21.50
2022-10-09T19:36:49.979Z,24.10
2022-10-09T19:41:56.646Z,25.60
2022-10-09T19:47:02.579Z,32.50
2022-10-09T19:52:10.930Z,32.90
2022-10-09T19:57:15.830Z,42.10
2022-10-09T20:02:21.784Z,31.70
2022-10-09T20:07:27.260Z,40.80
2022-10-09T20:12:32.111Z,33.40
2022-10-09T20:17:37.450Z,43.60
2022-10-09T20:22:41.502Z,40.50
2022-10-09T20:27:45.125Z,37.20
2022-10-09T20:32:49.624Z,48.20
2022-10-09T20:37:53.628Z,52.10
2022-10-09T20:42:57.773Z,45.90
2022-10-09T20:48:01.536Z,36.60
2022-10-09T20:53:05.741Z,36.30
2022-10-09T20:58:10.327Z,47.10
2022-10-09T21:03:15.284Z,36.60
2022-10-09T21:08:19.130Z,42.90
2022-10-09T21:13:23.476Z,48.50
2022-10-09T21:18:28.241Z,43.80
2022-10-09T21:23:32.113Z,44.70
2022-10-09T21:28:35.750Z,51.90
2022-10-09T21:33:39.723Z,50.80
2022-10-09T21:38:44.022Z,42.10
2022-10-09T21:43:48.902Z,43.70
2022-10-09T21:48:52.837Z,38.50
2022-10-09T21:53:57.766Z,42.60
2022-10-09T21:59:02.572Z,43.60
2022-10-09T22:04:07.015Z,40.40
2022-10-09T22:09:12.662Z,35.90
2022-10-09T22:14:16.488Z,40.20
2022-10-09T22:19:20.476Z,32.90
2022-10-09T22:24:28.952Z,39.10
2022-10-09T22:29:33.968Z,30.90
2022-10-09T22:34:38.836Z,34.80
2022-10-09T22:39:42.605Z,34.20
2022-10-09T22:44:47.125Z,36.30
2022-10-09T22:49:52.187Z,27.50
2022-10-09T22:54:56.597Z,41.20
2022-10-09T23:00:00.614Z,32.90
2022-10-09T23:05:07.554Z,25.40
2022-10-09T23:10:11.611Z,33.00
2022-10-09T23:15:15.522Z,27.40
2022-10-09T23:20:19.601Z,24.00
2022-10-09T23:25:23.838Z,29.20
2022-10-09T23:30:28.532Z,26.90
2022-10-09T23:35:32.471Z,22.50
2022-10-09T23:40:36.931Z,31.70
2022-10-09T23:45:41.710Z,28.20
2022-10-09T23:50:45.144Z,26.70
2022-10-09T23:55:49.364Z,37.80
